PROFILE

 METAR AND TAF INFORMATION
ADDS - METARS form results

(0556 UTC 22 September 2019)
http://aviationweather.gov/metar/data/
 
LLBG 220550Z 16004KT 9999 FEW023 27/21 Q1013 NOSIG
LLBG 220520Z 14004KT 9999 FEW023 26/20 Q1013 NOSIG
TAF LLBG 220509Z 2206/2306 15005KT 9999 SCT030 BECMG 2207/2210 30014KT CAVOK BECMG 2216/2218 VRB04KT 9999 FEW020 TEMPO 2218/2219 35006KT PROB40 2301/2305 14005KT 8000 SCT018 TX32/2211Z TN23/2303Z 

 AIRPORT MAP

 RUNWAY INFORMATION
Runway 03 Runway length 9094 ft Runway width 148 ft
Runway elevation 129 ft Runway displaced threshold 0 ft Runway heading 29
Runway 21 Runway length 9094 ft Runway width 148 ft
Runway elevation 134 ft Runway displaced threshold 0 ft Runway heading 209
Runway 08 Runway length 13327 ft Runway width 148 ft
Runway elevation 97 ft Runway displaced threshold 0 ft Runway heading 80
Runway 26 Runway length 13327 ft Runway width 148 ft
Runway elevation 124 ft Runway displaced threshold 1969 ft Runway heading 260
Runway 12 Runway length 10209 ft Runway width 148 ft
Runway elevation 112 ft Runway displaced threshold 0 ft Runway heading 121
Runway 30 Runway length 10209 ft Runway width 148 ft
Runway elevation 130 ft Runway displaced threshold 246 ft Runway heading 301

 AIRPORT FREQUENCIES
Type APP Name Ben Gurion Frequency 120.5 MHZ
Type ATIS Name ATIS Frequency 132.5 MHZ
Type CLD Name CLNC DEL Frequency 119.35 MHZ
Type GND Name GND WEST Frequency 118.05 MHZ
Type GND Name GND EAST Frequency 129.2 MHZ
Type MISC Name VOLMET Frequency 126.8 MHZ
Type TMA Name Ben Gurion Frequency 119.5 MHZ
Type TWR Name Ben Gurion Frequency 132.1 MHZ
Type TWR Name Ben Gurion Frequency 134.6 MHZ

 AIRPORT NEAR NAVIGATION AIDS
Type VOR-DME Name Ben Gurion Frequency 113500 KHZ
Type NDB Name Tel Aviv Frequency 331 KHZ